Viso Del Marques, Spain
Current Conditions -  °F | °C
As of 2:00 PM on Sunday 23 Nov 2014 (Local Time) from LEAO Reporting Station
Clear Clear  
Wind Chill: 66°   Ceiling: Unl
Heat Index: 66°   Visibility: 6mi
Dew Point: 52°   Wind: 3mph
Humidity: 60%   Direction: 50°NE
Pressure: 29.88"   Gusts: NA
Location:  38.52°N, 3.56°W
Report Text: LEAO 231300Z 05003KT 340V100 CAVOK 19/11 Q1012
Loading
Personal Weather Stations






























Interactive Weather Map New forecast layout! Learn more

10-Day Weather Forecast

Advertisements
Track Severe Weather on mobile